Hackettstown, New Jersey
Current Conditions -  °F | °C
As of 10:53 AM on Saturday 20 Dec 2014 (Local Time) from KSMQ Reporting Station
Overcast Overcast  
Wind Chill: 32°   Ceiling: 2800
Heat Index: 32°   Visibility: 10mi
Dew Point: 20°   Wind: 0mph
Humidity: 61%   Direction: NA
Pressure: 30.29"   Gusts: NA
Location:  40.85°N, 74.83°W
Report Text: KSMQ 201553Z AUTO 00000KT 10SM OVC028 00/M07 A3029 RMK AO2 SLP258 T00001067
Loading
Personal Weather Stations






























Interactive Weather Map New forecast layout! Learn more

10-Day Weather Forecast

Advertisements
Track Severe Weather on mobile